sensor_id;sensor_type;location;lat;lon;timestamp;pressure;altitude;pressure_sealevel;temperature;humidity
74270;BME280;62754;48.252;11.654;2023-09-07T00:00:32;96479.91;;;14.64;99.55
74270;BME280;62754;48.252;11.654;2023-09-07T00:02:58;96481.28;;;14.58;99.78
74270;BME280;62754;48.252;11.654;2023-09-07T00:05:24;96486.19;;;14.61;99.86
74270;BME280;62754;48.252;11.654;2023-09-07T00:07:49;96489.47;;;14.54;100.00
74270;BME280;62754;48.252;11.654;2023-09-07T00:10:15;96485.78;;;14.47;100.00
74270;BME280;62754;48.252;11.654;2023-09-07T00:12:41;96487.69;;;14.45;100.00
74270;BME280;62754;48.252;11.654;2023-09-07T00:15:07;96476.25;;;14.47;100.00
74270;BME280;62754;48.252;11.654;2023-09-07T00:17:33;96479.66;;;14.48;100.00
74270;BME280;62754;48.252;11.654;2023-09-07T00:20:01;96479.94;;;14.35;100.00
74270;BME280;62754;48.252;11.654;2023-09-07T00:22:27;96477.44;;;14.33;100.00
74270;BME280;62754;48.252;11.654;2023-09-07T00:24:55;96476.22;;;14.28;100.00
74270;BME280;62754;48.252;11.654;2023-09-07T00:27:21;96474.84;;;14.24;100.00
74270;BME280;62754;48.252;11.654;2023-09-07T00:29:47;96471.03;;;14.28;100.00
74270;BME280;62754;48.252;11.654;2023-09-07T00:32:13;96474.16;;;14.22;100.00
74270;BME280;62754;48.252;11.654;2023-09-07T00:34:38;96466.78;;;14.17;100.00
74270;BME280;62754;48.252;11.654;2023-09-07T00:37:06;96471.72;;;14.20;100.00
74270;BME280;62754;48.252;11.654;2023-09-07T00:39:32;96474.03;;;14.23;100.00
74270;BME280;62754;48.252;11.654;2023-09-07T00:42:00;96476.75;;;14.22;100.00
74270;BME280;62754;48.252;11.654;2023-09-07T00:44:28;96470.50;;;14.24;100.00
74270;BME280;62754;48.252;11.654;2023-09-07T00:46:56;96471.72;;;14.20;100.00
74270;BME280;62754;48.252;11.654;2023-09-07T00:49:24;96472.38;;;14.22;100.00
74270;BME280;62754;48.252;11.654;2023-09-07T00:51:51;96475.78;;;14.23;100.00
74270;BME280;62754;48.252;11.654;2023-09-07T00:54:22;96470.72;;;14.21;100.00
74270;BME280;62754;48.252;11.654;2023-09-07T00:56:47;96471.41;;;14.14;100.00
74270;BME280;62754;48.252;11.654;2023-09-07T00:59:16;96469.38;;;14.17;100.00
74270;BME280;62754;48.252;11.654;2023-09-07T01:01:41;96463.91;;;14.11;100.00
74270;BME280;62754;48.252;11.654;2023-09-07T01:04:07;96469.25;;;14.09;100.00
74270;BME280;62754;48.252;11.654;2023-09-07T01:06:40;96468.53;;;14.07;100.00
74270;BME280;62754;48.252;11.654;2023-09-07T01:09:21;96465.00;;;14.18;100.00
74270;BME280;62754;48.252;11.654;2023-09-07T01:11:49;96465.00;;;14.08;100.00
74270;BME280;62754;48.252;11.654;2023-09-07T01:14:14;96471.41;;;14.04;100.00
74270;BME280;62754;48.252;11.654;2023-09-07T01:16:43;96465.38;;;13.94;100.00
74270;BME280;62754;48.252;11.654;2023-09-07T01:19:09;96461.03;;;13.85;100.00
74270;BME280;62754;48.252;11.654;2023-09-07T01:21:36;96460.03;;;13.76;100.00
74270;BME280;62754;48.252;11.654;2023-09-07T01:24:04;96460.44;;;13.72;100.00
74270;BME280;62754;48.252;11.654;2023-09-07T01:26:34;96460.72;;;13.69;100.00
74270;BME280;62754;48.252;11.654;2023-09-07T01:29:05;96453.88;;;13.68;100.00
74270;BME280;62754;48.252;11.654;2023-09-07T01:31:36;96459.22;;;13.66;100.00
74270;BME280;62754;48.252;11.654;2023-09-07T01:34:02;96458.41;;;13.66;100.00
74270;BME280;62754;48.252;11.654;2023-09-07T01:36:28;96457.44;;;13.67;100.00
74270;BME280;62754;48.252;11.654;2023-09-07T01:38:58;96463.72;;;13.74;100.00
74270;BME280;62754;48.252;11.654;2023-09-07T01:41:24;96466.72;;;13.69;100.00
74270;BME280;62754;48.252;11.654;2023-09-07T01:43:52;96462.63;;;13.76;100.00
74270;BME280;62754;48.252;11.654;2023-09-07T01:46:20;96459.63;;;13.71;100.00
74270;BME280;62754;48.252;11.654;2023-09-07T01:48:46;96466.16;;;13.66;100.00
74270;BME280;62754;48.252;11.654;2023-09-07T01:51:12;96465.28;;;13.56;100.00
74270;BME280;62754;48.252;11.654;2023-09-07T01:53:37;96466.94;;;13.57;100.00
74270;BME280;62754;48.252;11.654;2023-09-07T01:56:03;96465.06;;;13.59;100.00
74270;BME280;62754;48.252;11.654;2023-09-07T01:58:32;96462.47;;;13.59;100.00
74270;BME280;62754;48.252;11.654;2023-09-07T02:01:00;96454.56;;;13.60;100.00
74270;BME280;62754;48.252;11.654;2023-09-07T02:03:29;96456.59;;;13.57;100.00
74270;BME280;62754;48.252;11.654;2023-09-07T02:05:59;96455.22;;;13.53;100.00
74270;BME280;62754;48.252;11.654;2023-09-07T02:08:25;96449.75;;;13.56;100.00
74270;BME280;62754;48.252;11.654;2023-09-07T02:10:53;96456.97;;;13.52;100.00
74270;BME280;62754;48.252;11.654;2023-09-07T02:13:21;96459.19;;;13.57;100.00
74270;BME280;62754;48.252;11.654;2023-09-07T02:15:47;96457.13;;;13.51;100.00
74270;BME280;62754;48.252;11.654;2023-09-07T02:18:17;96456.97;;;13.52;100.00
74270;BME280;62754;48.252;11.654;2023-09-07T02:20:45;96460.28;;;13.54;100.00
74270;BME280;62754;48.252;11.654;2023-09-07T02:23:11;96454.94;;;13.46;100.00
74270;BME280;62754;48.252;11.654;2023-09-07T02:25:40;96457.09;;;13.41;100.00
74270;BME280;62754;48.252;11.654;2023-09-07T02:28:06;96455.59;;;13.39;100.00
74270;BME280;62754;48.252;11.654;2023-09-07T02:30:32;96457.78;;;13.43;100.00
74270;BME280;62754;48.252;11.654;2023-09-07T02:32:57;96455.69;;;13.37;100.00
74270;BME280;62754;48.252;11.654;2023-09-07T02:35:23;96454.72;;;13.28;100.00
74270;BME280;62754;48.252;11.654;2023-09-07T02:37:51;96459.22;;;13.26;100.00
74270;BME280;62754;48.252;11.654;2023-09-07T02:40:19;96456.06;;;13.23;100.00
74270;BME280;62754;48.252;11.654;2023-09-07T02:42:45;96464.66;;;13.23;100.00
74270;BME280;62754;48.252;11.654;2023-09-07T02:45:11;96465.84;;;13.19;100.00
74270;BME280;62754;48.252;11.654;2023-09-07T02:47:40;96461.44;;;13.10;100.00
74270;BME280;62754;48.252;11.654;2023-09-07T02:50:10;96462.34;;;13.09;100.00
74270;BME280;62754;48.252;11.654;2023-09-07T02:52:39;96464.94;;;13.09;100.00
74270;BME280;62754;48.252;11.654;2023-09-07T02:55:05;96463.28;;;13.19;100.00
74270;BME280;62754;48.252;11.654;2023-09-07T02:57:30;96463.31;;;13.08;100.00
74270;BME280;62754;48.252;11.654;2023-09-07T02:59:56;96457.72;;;13.03;100.00
74270;BME280;62754;48.252;11.654;2023-09-07T03:02:22;96467.94;;;13.05;100.00
74270;BME280;62754;48.252;11.654;2023-09-07T03:04:53;96462.34;;;13.09;100.00
74270;BME280;62754;48.252;11.654;2023-09-07T03:07:19;96465.34;;;13.05;100.00
74270;BME280;62754;48.252;11.654;2023-09-07T03:09:47;96456.28;;;13.10;100.00
74270;BME280;62754;48.252;11.654;2023-09-07T03:12:15;96459.34;;;13.04;100.00
74270;BME280;62754;48.252;11.654;2023-09-07T03:14:45;96460.63;;;12.89;100.00
74270;BME280;62754;48.252;11.654;2023-09-07T03:17:10;96460.09;;;12.85;100.00
74270;BME280;62754;48.252;11.654;2023-09-07T03:19:36;96473.13;;;12.84;100.00
74270;BME280;62754;48.252;11.654;2023-09-07T03:22:02;96465.09;;;12.87;100.00
74270;BME280;62754;48.252;11.654;2023-09-07T03:24:30;96459.94;;;12.87;100.00
74270;BME280;62754;48.252;11.654;2023-09-07T03:26:59;96464.22;;;12.98;100.00
74270;BME280;62754;48.252;11.654;2023-09-07T03:29:27;96466.13;;;12.96;100.00
74270;BME280;62754;48.252;11.654;2023-09-07T03:31:55;96471.84;;;12.99;100.00
74270;BME280;62754;48.252;11.654;2023-09-07T03:34:23;96466.56;;;13.01;100.00
74270;BME280;62754;48.252;11.654;2023-09-07T03:36:49;96480.16;;;13.03;100.00
74270;BME280;62754;48.252;11.654;2023-09-07T03:39:14;96472.59;;;12.90;100.00
74270;BME280;62754;48.252;11.654;2023-09-07T03:41:42;96470.47;;;12.95;100.00
74270;BME280;62754;48.252;11.654;2023-09-07T03:44:08;96469.22;;;12.89;100.00
74270;BME280;62754;48.252;11.654;2023-09-07T03:46:36;96463.72;;;12.83;100.00
74270;BME280;62754;48.252;11.654;2023-09-07T03:49:04;96473.66;;;12.78;100.00
74270;BME280;62754;48.252;11.654;2023-09-07T03:51:32;96474.97;;;12.72;100.00
74270;BME280;62754;48.252;11.654;2023-09-07T03:53:58;96470.88;;;12.70;100.00
74270;BME280;62754;48.252;11.654;2023-09-07T03:56:24;96468.50;;;12.67;100.00
74270;BME280;62754;48.252;11.654;2023-09-07T03:58:54;96468.28;;;12.70;100.00
74270;BME280;62754;48.252;11.654;2023-09-07T04:01:20;96468.22;;;12.60;100.00
74270;BME280;62754;48.252;11.654;2023-09-07T04:03:48;96474.31;;;12.59;100.00
74270;BME280;62754;48.252;11.654;2023-09-07T04:06:19;96464.88;;;12.69;100.00
74270;BME280;62754;48.252;11.654;2023-09-07T04:08:44;96469.03;;;12.61;100.00
74270;BME280;62754;48.252;11.654;2023-09-07T04:11:13;96472.44;;;12.61;100.00
74270;BME280;62754;48.252;11.654;2023-09-07T04:13:41;96479.28;;;12.51;100.00
74270;BME280;62754;48.252;11.654;2023-09-07T04:16:08;96477.97;;;12.57;100.00
74270;BME280;62754;48.252;11.654;2023-09-07T04:18:34;96480.44;;;12.58;100.00
74270;BME280;62754;48.252;11.654;2023-09-07T04:21:06;96484.78;;;12.58;100.00
74270;BME280;62754;48.252;11.654;2023-09-07T04:23:32;96475.44;;;12.46;100.00
74270;BME280;62754;48.252;11.654;2023-09-07T04:26:11;96485.03;;;12.34;100.00
74270;BME280;62754;48.252;11.654;2023-09-07T04:28:39;96494.16;;;12.38;100.00
74270;BME280;62754;48.252;11.654;2023-09-07T04:31:05;96495.66;;;12.40;100.00
74270;BME280;62754;48.252;11.654;2023-09-07T04:33:34;96492.78;;;12.34;100.00
74270;BME280;62754;48.252;11.654;2023-09-07T04:36:17;96492.66;;;12.35;100.00
74270;BME280;62754;48.252;11.654;2023-09-07T04:38:45;96499.22;;;12.39;100.00
74270;BME280;62754;48.252;11.654;2023-09-07T04:41:12;96498.63;;;12.36;100.00
74270;BME280;62754;48.252;11.654;2023-09-07T04:43:40;96495.66;;;12.40;100.00
74270;BME280;62754;48.252;11.654;2023-09-07T04:46:08;96492.84;;;12.43;100.00
74270;BME280;62754;48.252;11.654;2023-09-07T04:48:34;96495.25;;;12.35;100.00
74270;BME280;62754;48.252;11.654;2023-09-07T04:51:02;96491.84;;;12.35;100.00
74270;BME280;62754;48.252;11.654;2023-09-07T04:53:29;96490.75;;;12.37;100.00
74270;BME280;62754;48.252;11.654;2023-09-07T04:55:59;96485.13;;;12.32;100.00
74270;BME280;62754;48.252;11.654;2023-09-07T04:58:25;96489.81;;;12.38;100.00
74270;BME280;62754;48.252;11.654;2023-09-07T05:00:53;96489.69;;;12.40;100.00
74270;BME280;62754;48.252;11.654;2023-09-07T05:03:19;96493.78;;;12.43;100.00
74270;BME280;62754;48.252;11.654;2023-09-07T05:05:50;96494.47;;;12.45;100.00
74270;BME280;62754;48.252;11.654;2023-09-07T05:08:16;96499.78;;;12.43;100.00
74270;BME280;62754;48.252;11.654;2023-09-07T05:10:45;96499.75;;;12.54;100.00
74270;BME280;62754;48.252;11.654;2023-09-07T05:13:15;96501.13;;;12.58;100.00
74270;BME280;62754;48.252;11.654;2023-09-07T05:15:48;96497.72;;;12.58;100.00
74270;BME280;62754;48.252;11.654;2023-09-07T05:18:16;96495.25;;;12.56;100.00
74270;BME280;62754;48.252;11.654;2023-09-07T05:20:44;96504.59;;;12.68;100.00
74270;BME280;62754;48.252;11.654;2023-09-07T05:23:14;96500.81;;;12.72;100.00
74270;BME280;62754;48.252;11.654;2023-09-07T05:25:46;96493.13;;;12.82;100.00
74270;BME280;62754;48.252;11.654;2023-09-07T05:28:17;96495.19;;;12.88;100.00
74270;BME280;62754;48.252;11.654;2023-09-07T05:30:45;96501.00;;;12.80;100.00
74270;BME280;62754;48.252;11.654;2023-09-07T05:33:13;96508.13;;;12.88;100.00
74270;BME280;62754;48.252;11.654;2023-09-07T05:35:43;96512.38;;;12.89;100.00
74270;BME280;62754;48.252;11.654;2023-09-07T05:38:09;96508.59;;;12.93;100.00
74270;BME280;62754;48.252;11.654;2023-09-07T05:40:41;96509.44;;;13.03;100.00
74270;BME280;62754;48.252;11.654;2023-09-07T05:43:07;96508.25;;;13.07;100.00
74270;BME280;62754;48.252;11.654;2023-09-07T05:45:35;96514.25;;;13.08;100.00
74270;BME280;62754;48.252;11.654;2023-09-07T05:48:04;96518.84;;;13.25;100.00
74270;BME280;62754;48.252;11.654;2023-09-07T05:50:36;96522.78;;;13.19;100.00
74270;BME280;62754;48.252;11.654;2023-09-07T05:53:05;96527.34;;;13.36;100.00
74270;BME280;62754;48.252;11.654;2023-09-07T05:55:31;96524.53;;;13.40;100.00
74270;BME280;62754;48.252;11.654;2023-09-07T05:57:58;96537.75;;;13.46;100.00
74270;BME280;62754;48.252;11.654;2023-09-07T06:00:24;96532.38;;;13.59;100.00
74270;BME280;62754;48.252;11.654;2023-09-07T06:02:52;96537.56;;;13.68;100.00
74270;BME280;62754;48.252;11.654;2023-09-07T06:05:21;96539.56;;;13.86;100.00
74270;BME280;62754;48.252;11.654;2023-09-07T06:07:47;96542.59;;;14.00;100.00
74270;BME280;62754;48.252;11.654;2023-09-07T06:10:13;96541.81;;;14.09;100.00
74270;BME280;62754;48.252;11.654;2023-09-07T06:12:38;96535.94;;;14.17;100.00
74270;BME280;62754;48.252;11.654;2023-09-07T06:15:07;96540.84;;;14.20;100.00
74270;BME280;62754;48.252;11.654;2023-09-07T06:17:33;96535.94;;;14.26;99.44
74270;BME280;62754;48.252;11.654;2023-09-07T06:19:59;96544.81;;;14.33;99.46
74270;BME280;62754;48.252;11.654;2023-09-07T06:22:25;96540.25;;;14.47;98.99
74270;BME280;62754;48.252;11.654;2023-09-07T06:24:50;96544.19;;;14.51;99.02
74270;BME280;62754;48.252;11.654;2023-09-07T06:27:21;96538.19;;;14.60;99.56
74270;BME280;62754;48.252;11.654;2023-09-07T06:29:46;96535.88;;;14.66;99.56
74270;BME280;62754;48.252;11.654;2023-09-07T06:32:14;96537.38;;;14.78;99.82
74270;BME280;62754;48.252;11.654;2023-09-07T06:34:40;96538.72;;;15.02;97.39
74270;BME280;62754;48.252;11.654;2023-09-07T06:37:06;96533.25;;;15.05;96.59
74270;BME280;62754;48.252;11.654;2023-09-07T06:39:34;96541.28;;;15.11;96.31
74270;BME280;62754;48.252;11.654;2023-09-07T06:42:00;96527.78;;;15.17;97.19
74270;BME280;62754;48.252;11.654;2023-09-07T06:44:26;96530.56;;;15.34;96.85
74270;BME280;62754;48.252;11.654;2023-09-07T06:46:51;96542.06;;;15.41;97.00
74270;BME280;62754;48.252;11.654;2023-09-07T06:49:19;96539.03;;;15.55;97.53
74270;BME280;62754;48.252;11.654;2023-09-07T06:51:50;96542.56;;;15.63;95.23
74270;BME280;62754;48.252;11.654;2023-09-07T06:54:15;96542.72;;;15.80;95.01
74270;BME280;62754;48.252;11.654;2023-09-07T06:56:41;96540.63;;;15.93;94.78
74270;BME280;62754;48.252;11.654;2023-09-07T06:59:10;96538.31;;;15.90;94.68
74270;BME280;62754;48.252;11.654;2023-09-07T07:01:39;96543.56;;;16.07;93.35
74270;BME280;62754;48.252;11.654;2023-09-07T07:04:07;96539.22;;;16.26;92.25
74270;BME280;62754;48.252;11.654;2023-09-07T07:06:33;96547.63;;;16.37;91.35
74270;BME280;62754;48.252;11.654;2023-09-07T07:08:59;96548.34;;;16.30;90.59
74270;BME280;62754;48.252;11.654;2023-09-07T07:11:24;96544.22;;;16.37;90.07
74270;BME280;62754;48.252;11.654;2023-09-07T07:13:52;96546.41;;;16.59;90.61
74270;BME280;62754;48.252;11.654;2023-09-07T07:16:18;96535.16;;;16.76;89.12
74270;BME280;62754;48.252;11.654;2023-09-07T07:18:44;96535.22;;;16.84;87.02
74270;BME280;62754;48.252;11.654;2023-09-07T07:21:14;96543.03;;;17.02;89.33
74270;BME280;62754;48.252;11.654;2023-09-07T07:23:42;96541.59;;;17.07;87.59
74270;BME280;62754;48.252;11.654;2023-09-07T07:26:11;96543.19;;;17.26;86.31
74270;BME280;62754;48.252;11.654;2023-09-07T07:28:36;96537.84;;;17.28;85.85
74270;BME280;62754;48.252;11.654;2023-09-07T07:31:11;96552.63;;;17.45;86.52
74270;BME280;62754;48.252;11.654;2023-09-07T07:33:39;96556.81;;;17.46;86.59
74270;BME280;62754;48.252;11.654;2023-09-07T07:36:05;96553.31;;;17.55;85.39
74270;BME280;62754;48.252;11.654;2023-09-07T07:38:30;96551.34;;;17.75;84.58
74270;BME280;62754;48.252;11.654;2023-09-07T07:40:56;96551.25;;;17.92;84.79
74270;BME280;62754;48.252;11.654;2023-09-07T07:43:25;96551.97;;;18.11;84.55
74270;BME280;62754;48.252;11.654;2023-09-07T07:45:52;96550.09;;;18.37;82.30
74270;BME280;62754;48.252;11.654;2023-09-07T07:48:20;96562.84;;;18.48;82.30
74270;BME280;62754;48.252;11.654;2023-09-07T07:50:45;96555.72;;;18.66;80.70
74270;BME280;62754;48.252;11.654;2023-09-07T07:53:13;96564.56;;;18.97;80.98
74270;BME280;62754;48.252;11.654;2023-09-07T07:55:40;96561.78;;;19.15;78.86
74270;BME280;62754;48.252;11.654;2023-09-07T07:58:09;96559.50;;;19.12;76.77
74270;BME280;62754;48.252;11.654;2023-09-07T08:00:40;96552.94;;;19.57;76.12
74270;BME280;62754;48.252;11.654;2023-09-07T08:03:06;96549.81;;;19.69;75.44
74270;BME280;62754;48.252;11.654;2023-09-07T08:05:34;96545.66;;;19.91;74.89
74270;BME280;62754;48.252;11.654;2023-09-07T08:08:00;96545.69;;;20.22;73.80
74270;BME280;62754;48.252;11.654;2023-09-07T08:10:26;96550.97;;;20.44;72.45
74270;BME280;62754;48.252;11.654;2023-09-07T08:12:56;96550.00;;;20.68;70.81
74270;BME280;62754;48.252;11.654;2023-09-07T08:15:22;96532.72;;;20.82;70.16
74270;BME280;62754;48.252;11.654;2023-09-07T08:17:50;96545.16;;;21.03;69.99
74270;BME280;62754;48.252;11.654;2023-09-07T08:20:21;96549.44;;;21.26;69.71
74270;BME280;62754;48.252;11.654;2023-09-07T08:22:47;96540.06;;;21.61;67.20
74270;BME280;62754;48.252;11.654;2023-09-07T08:25:13;96541.44;;;21.57;67.22
74270;BME280;62754;48.252;11.654;2023-09-07T08:27:40;96543.31;;;21.78;66.36
74270;BME280;62754;48.252;11.654;2023-09-07T08:30:11;96546.59;;;21.80;65.18
74270;BME280;62754;48.252;11.654;2023-09-07T08:32:37;96549.94;;;21.89;66.46
74270;BME280;62754;48.252;11.654;2023-09-07T08:35:05;96546.69;;;22.16;65.41
74270;BME280;62754;48.252;11.654;2023-09-07T08:37:31;96546.69;;;22.16;64.84
74270;BME280;62754;48.252;11.654;2023-09-07T08:40:00;96550.56;;;22.20;65.43
74270;BME280;62754;48.252;11.654;2023-09-07T08:42:28;96548.69;;;22.50;64.15
74270;BME280;62754;48.252;11.654;2023-09-07T08:44:54;96540.03;;;22.35;64.16
74270;BME280;62754;48.252;11.654;2023-09-07T08:47:24;96552.84;;;22.44;64.33
74270;BME280;62754;48.252;11.654;2023-09-07T08:49:51;96550.06;;;22.67;64.27
74270;BME280;62754;48.252;11.654;2023-09-07T08:52:18;96545.88;;;22.51;64.36
74270;BME280;62754;48.252;11.654;2023-09-07T08:54:45;96543.38;;;22.43;63.98
74270;BME280;62754;48.252;11.654;2023-09-07T08:57:13;96550.81;;;22.61;64.93
74270;BME280;62754;48.252;11.654;2023-09-07T08:59:40;96546.47;;;22.68;64.39
74270;BME280;62754;48.252;11.654;2023-09-07T09:02:07;96541.94;;;22.76;62.43
74270;BME280;62754;48.252;11.654;2023-09-07T09:04:36;96540.31;;;22.61;64.00
74270;BME280;62754;48.252;11.654;2023-09-07T09:07:04;96538.03;;;22.72;63.61
74270;BME280;62754;48.252;11.654;2023-09-07T09:09:30;96528.84;;;22.83;61.98
74270;BME280;62754;48.252;11.654;2023-09-07T09:12:14;96539.78;;;22.87;62.36
74270;BME280;62754;48.252;11.654;2023-09-07T09:14:43;96539.91;;;23.00;61.65
74270;BME280;62754;48.252;11.654;2023-09-07T09:17:13;96548.41;;;23.23;60.50
74270;BME280;62754;48.252;11.654;2023-09-07T09:19:39;96543.84;;;23.32;61.30
74270;BME280;62754;48.252;11.654;2023-09-07T09:22:05;96543.75;;;23.25;60.62
74270;BME280;62754;48.252;11.654;2023-09-07T09:24:34;96537.09;;;23.44;60.97
74270;BME280;62754;48.252;11.654;2023-09-07T09:27:04;96535.22;;;23.16;60.58
74270;BME280;62754;48.252;11.654;2023-09-07T09:29:34;96528.44;;;23.29;62.72
74270;BME280;62754;48.252;11.654;2023-09-07T09:32:03;96530.13;;;23.15;62.82
74270;BME280;62754;48.252;11.654;2023-09-07T09:34:38;96524.34;;;23.26;62.87
74270;BME280;62754;48.252;11.654;2023-09-07T09:37:04;96533.72;;;23.07;62.46
74270;BME280;62754;48.252;11.654;2023-09-07T09:39:32;96522.97;;;22.81;62.93
74270;BME280;62754;48.252;11.654;2023-09-07T09:42:00;96518.59;;;22.88;62.00
74270;BME280;62754;48.252;11.654;2023-09-07T09:44:30;96517.50;;;23.04;62.15
74270;BME280;62754;48.252;11.654;2023-09-07T09:47:00;96516.13;;;22.87;63.14
74270;BME280;62754;48.252;11.654;2023-09-07T09:49:27;96519.97;;;22.84;62.18
74270;BME280;62754;48.252;11.654;2023-09-07T09:51:53;96523.34;;;22.99;62.82
74270;BME280;62754;48.252;11.654;2023-09-07T09:54:23;96512.72;;;23.14;62.98
74270;BME280;62754;48.252;11.654;2023-09-07T09:56:54;96514.94;;;23.38;62.41
74270;BME280;62754;48.252;11.654;2023-09-07T09:59:19;96512.13;;;23.40;61.49
74270;BME280;62754;48.252;11.654;2023-09-07T10:01:47;96517.78;;;23.64;60.59
74270;BME280;62754;48.252;11.654;2023-09-07T10:04:17;96524.81;;;23.57;59.77
74270;BME280;62754;48.252;11.654;2023-09-07T10:07:04;96517.97;;;24.04;58.35
74270;BME280;62754;48.252;11.654;2023-09-07T10:09:33;96514.75;;;24.62;57.84
74270;BME280;62754;48.252;11.654;2023-09-07T10:12:02;96517.06;;;25.05;55.86
74270;BME280;62754;48.252;11.654;2023-09-07T10:14:40;96507.72;;;25.42;52.45
74270;BME280;62754;48.252;11.654;2023-09-07T10:17:09;96515.63;;;25.75;53.22
74270;BME280;62754;48.252;11.654;2023-09-07T10:19:37;96509.00;;;26.03;51.53
74270;BME280;62754;48.252;11.654;2023-09-07T10:22:05;96513.19;;;26.31;51.26
74270;BME280;62754;48.252;11.654;2023-09-07T10:24:33;96514.97;;;26.43;50.53
74270;BME280;62754;48.252;11.654;2023-09-07T10:27:08;96513.84;;;26.95;49.46
74270;BME280;62754;48.252;11.654;2023-09-07T10:29:45;96508.25;;;26.79;48.07
74270;BME280;62754;48.252;11.654;2023-09-07T10:32:13;96505.00;;;26.83;48.49
74270;BME280;62754;48.252;11.654;2023-09-07T10:34:39;96513.44;;;26.98;48.17
74270;BME280;62754;48.252;11.654;2023-09-07T10:37:09;96515.38;;;27.10;48.70
74270;BME280;62754;48.252;11.654;2023-09-07T10:39:39;96509.88;;;26.80;47.87
74270;BME280;62754;48.252;11.654;2023-09-07T10:42:05;96500.84;;;26.94;48.39
74270;BME280;62754;48.252;11.654;2023-09-07T10:44:33;96504.13;;;26.89;47.10
74270;BME280;62754;48.252;11.654;2023-09-07T10:46:59;96498.66;;;26.91;47.69
74270;BME280;62754;48.252;11.654;2023-09-07T10:49:28;96506.78;;;26.89;48.11
74270;BME280;62754;48.252;11.654;2023-09-07T10:51:53;96498.97;;;27.01;47.98
74270;BME280;62754;48.252;11.654;2023-09-07T10:54:23;96499.50;;;26.78;47.42
74270;BME280;62754;48.252;11.654;2023-09-07T10:56:50;96501.03;;;26.99;46.99
74270;BME280;62754;48.252;11.654;2023-09-07T10:59:20;96510.28;;;26.83;47.16
74270;BME280;62754;48.252;11.654;2023-09-07T11:01:49;96502.59;;;26.75;47.17
74270;BME280;62754;48.252;11.654;2023-09-07T11:04:17;96500.53;;;26.77;47.04
74270;BME280;62754;48.252;11.654;2023-09-07T11:06:42;96500.91;;;26.81;47.79
74270;BME280;62754;48.252;11.654;2023-09-07T11:09:13;96502.41;;;27.02;45.83
74270;BME280;62754;48.252;11.654;2023-09-07T11:11:39;96501.50;;;27.14;45.87
74270;BME280;62754;48.252;11.654;2023-09-07T11:14:07;96504.03;;;27.03;45.57
74270;BME280;62754;48.252;11.654;2023-09-07T11:16:36;96492.97;;;27.12;44.26
74270;BME280;62754;48.252;11.654;2023-09-07T11:19:05;96493.31;;;27.22;45.06
74270;BME280;62754;48.252;11.654;2023-09-07T11:21:34;96487.13;;;27.28;45.24
74270;BME280;62754;48.252;11.654;2023-09-07T11:24:03;96492.34;;;27.35;45.13
74270;BME280;62754;48.252;11.654;2023-09-07T11:26:28;96494.00;;;27.79;44.46
74270;BME280;62754;48.252;11.654;2023-09-07T11:28:56;96495.25;;;28.42;42.09
74270;BME280;62754;48.252;11.654;2023-09-07T11:31:24;96483.00;;;29.01;40.60
74270;BME280;62754;48.252;11.654;2023-09-07T11:33:53;96492.44;;;29.62;38.68
74270;BME280;62754;48.252;11.654;2023-09-07T11:36:19;96494.13;;;30.03;36.43
74270;BME280;62754;48.252;11.654;2023-09-07T11:38:47;96491.72;;;29.90;36.19
74270;BME280;62754;48.252;11.654;2023-09-07T11:41:15;96486.19;;;30.31;36.79
74270;BME280;62754;48.252;11.654;2023-09-07T11:43:41;96481.13;;;30.58;34.93
74270;BME280;62754;48.252;11.654;2023-09-07T11:46:09;96482.41;;;31.17;35.12
74270;BME280;62754;48.252;11.654;2023-09-07T11:48:35;96479.81;;;31.39;33.60
74270;BME280;62754;48.252;11.654;2023-09-07T11:51:01;96479.81;;;31.55;33.69
74270;BME280;62754;48.252;11.654;2023-09-07T11:53:29;96476.88;;;31.95;32.93
74270;BME280;62754;48.252;11.654;2023-09-07T11:55:56;96475.19;;;31.51;33.15
74270;BME280;62754;48.252;11.654;2023-09-07T11:58:21;96475.13;;;31.84;32.64
74270;BME280;62754;48.252;11.654;2023-09-07T12:00:47;96471.44;;;32.07;32.29
74270;BME280;62754;48.252;11.654;2023-09-07T12:03:13;96477.09;;;32.10;31.67
74270;BME280;62754;48.252;11.654;2023-09-07T12:05:39;96471.09;;;32.47;30.61
74270;BME280;62754;48.252;11.654;2023-09-07T12:08:05;96464.41;;;32.71;30.47
74270;BME280;62754;48.252;11.654;2023-09-07T12:10:31;96464.75;;;32.75;29.69
74270;BME280;62754;48.252;11.654;2023-09-07T12:12:56;96466.03;;;32.72;30.04
74270;BME280;62754;48.252;11.654;2023-09-07T12:15:24;96464.72;;;33.06;29.45
74270;BME280;62754;48.252;11.654;2023-09-07T12:17:52;96460.00;;;33.14;29.83
74270;BME280;62754;48.252;11.654;2023-09-07T12:20:18;96461.47;;;33.31;28.65
74270;BME280;62754;48.252;11.654;2023-09-07T12:22:44;96467.97;;;33.45;28.04
74270;BME280;62754;48.252;11.654;2023-09-07T12:25:11;96458.69;;;33.58;27.79
74270;BME280;62754;48.252;11.654;2023-09-07T12:27:37;96466.38;;;33.86;27.68
74270;BME280;62754;48.252;11.654;2023-09-07T12:30:06;96459.78;;;33.62;26.78
74270;BME280;62754;48.252;11.654;2023-09-07T12:32:32;96462.16;;;34.06;27.14
74270;BME280;62754;48.252;11.654;2023-09-07T12:34:59;96454.19;;;34.16;26.52
74270;BME280;62754;48.252;11.654;2023-09-07T12:37:27;96455.03;;;34.31;27.20
74270;BME280;62754;48.252;11.654;2023-09-07T12:39:52;96448.16;;;34.56;27.35
74270;BME280;62754;48.252;11.654;2023-09-07T12:42:18;96455.38;;;34.60;27.74
74270;BME280;62754;48.252;11.654;2023-09-07T12:44:46;96445.25;;;34.67;25.83
74270;BME280;62754;48.252;11.654;2023-09-07T12:47:12;96443.00;;;34.29;26.16